Vårt webkamera more information My webcam


webkamera på Randaberg more information webcam on Randaberg


Nedbørsradar  rain snow radar


Besøk vår andre værside:

Alternativ webside

Alternativ mobil

Regnskvett RandabergWebsite of another weatherstation



Ikke nødvendig med spesiell oppmerksomhet.    Det er ingen advarsler

Select another period ( hide this area )

enheter Periode Custom range Directly to
Metric Engelsk Begge
Daglig Weekly Månedlig Årlig
use both date-selectors for a custom range
previous Dag
With this date

WeatherUnderground graphs for this period ( click here )


Daglig sammendrag for Fredag 20 September 2019
Tid Temp. ( °C ) Dew pt. ( °C ) Vind ( km/h ) fra Vindkast ( km/h ) Trykk ( hPa ) Humid.( % ) Rainrate ( cm )
Max69,3 69,1 8,2 VNV ( 79/274 ) 10,5 1025,3 99 0,50
Snitt13,5 12,9 1,2 Stille #158/222 2,0 1024,4 88 0,70
Min-39,6 -41,7 -   0,0 1023,9 0 -
Daglig Tabular details for Fredag 20 September 2019
Tid Temp. ( °C ) Dew pt. ( °C ) Vind ( km/h ) fra Vindkast ( km/h ) Trykk ( hPa ) Humid.( % ) Rainrate ( cm )
00:00 45,8 45,6   Stille   1025,3 99 0,30
00:05 32,3 32,1   Stille   1025,3 99 -
00:10 8,7 8,6   Stille   1025,3 99 -
00:15 8,8 8,7   Stille   1025,3 99 -
00:20 9,3 9,2   Stille   1025,3 99 -
00:25 15,1 14,9   Stille   1025,3 99 -
00:30 15,1 14,9   Stille   1025,3 99 -
00:35 -17,8 -17,8   Stille   1025,3 0 -
00:40 -17,8 -17,8   Stille 4,0 1025,3 0 -
00:45 -17,8 -17,8   Stille 2,1 1025,3 0 -
00:50 -39,6 -40,8 2,9 NNV 3,2 1025,3 88 -
00:55 63,1 62,9   Stille 3,2 1024,9 99 -
01:00 40,3 40,1   Stille   1024,9 99 -
01:05 64,6 64,4   Stille   1024,9 99 -
01:10 64,6 64,4   Stille   1025,3 99 -
01:15 -17,8 -17,8   Stille   1025,3 0 -
01:20 -17,8 -17,8   Stille   1025,3 0 -
01:25 -17,8 -17,8   Stille   1025,3 0 -
01:30 3,4 3,3   Stille   1025,3 99 -
01:35 -24,7 -24,8   Stille   1025,3 99 -
01:40 -9,4 -9,5   Stille   1025,3 99 0,30
01:45 58,9 58,7   Stille   1025,3 99 0,30
01:50 58,9 58,7   Stille   1025,3 99 0,30
01:55 -17,8 -17,8   Stille   1024,9 0 0,30
02:00 -17,8 -17,8   Stille   1024,9 0 -
02:05 -17,8 -17,8   Stille   1024,9 0 -
02:10 37,2 37,0   Stille   1024,9 99 0,30
02:15 8,3 8,2   Stille 2,1 1024,9 99 0,30
02:20 31,1 30,9   Stille   1024,9 99 0,30
02:25 31,1 30,9   Stille   1024,9 99 0,30
02:30 9,2 9,1   Stille   1024,9 99 0,30
02:35 8,2 8,1   Stille   1024,9 99 0,30
02:40 8,2 8,1   Stille   1024,9 99 0,30
02:45 39,6 39,4 2,1 NNV 2,9 1024,9 99 0,30
02:50 39,6 39,4   Stille   1024,9 99 0,30
02:55 -17,8 -17,8   Stille   1024,9 0 0,30
03:00 -17,8 -17,8   Stille   1024,9 0 -
03:05 -17,8 -17,8   Stille   1024,9 0 -
03:10 -17,8 -17,8   Stille   1024,6 0 -
03:15 -17,8 -17,8   Stille   1024,6 0 -
03:20 -17,8 -17,8   Stille   1024,6 0 -
03:25 -17,8 -17,8   Stille   1024,6 0 -
03:30 53,0 52,8   Stille 2,9 1024,6 99 -
03:35 15,0 14,8   Stille   1024,6 99 -
03:40 8,8 8,7   Stille   1024,6 99 -
03:45 8,5 8,4   Stille   1024,6 99 -
03:50 8,3 8,2   Stille   1024,6 99 -
03:55 8,4 8,3   Stille   1024,6 99 -
04:00 9,8 9,7   Stille   1024,6 99 -
04:06 8,3 8,2   Stille   1024,6 99 -
04:10 16,2 16,0   Stille   1024,6 99 -
04:15 8,4 8,3   Stille   1024,6 99 -
04:20 8,7 8,6   Stille   1024,6 99 -
04:25 19,9 19,7   Stille   1024,6 99 -
04:30 8,5 8,4   Stille   1024,6 99 -
04:35 8,4 8,3   Stille   1024,6 99 -
04:40 35,1 34,9   Stille   1024,6 99 -
04:45 51,6 51,4   Stille   1024,6 99 -
04:50 51,6 51,4   Stille   1024,6 99 -
04:55 51,6 51,4   Stille   1024,3 99 -
05:00 51,6 51,4   Stille 4,7 1024,3 99 -
05:05 51,6 51,4   Stille   1024,3 99 0,30
05:10 51,6 51,4 2,9 NNV 3,2 1024,3 99 0,30
05:15 51,6 51,4   Stille 2,1 1024,3 99 0,30
05:20 8,7 8,6   Stille   1024,3 99 0,30
05:25 8,7 8,6   Stille 4,0 1024,6 99 0,30
05:30 8,6 8,5 2,1 NNV 2,1 1024,6 99 0,30
05:35 8,7 8,6   Stille   1024,6 99 0,30
05:40 8,6 8,5   Stille   1024,6 99 0,30
05:45 8,6 8,5   Stille   1024,6 99 0,30
05:50 8,6 8,5   Stille   1024,6 99 0,30
05:55 58,4 58,2   Stille   1024,6 99 0,30
06:00 58,4 58,2   Stille   1024,6 99 0,30
06:05 -17,8 -17,8   Stille   1024,6 0 -
06:10 -17,8 -17,8   Stille   1024,3 0 -
06:15 -17,8 -17,8   Stille   1024,3 0 -
06:20 54,1 53,9   Stille   1024,3 99 -
06:25 49,0 48,8   Stille   1024,3 99 -
06:30 8,8 8,7   Stille   1024,3 99 -
06:35 8,7 8,6   Stille   1024,3 99 -
06:40 8,7 8,6   Stille   1023,9 99 -
06:45 8,7 8,6   Stille   1023,9 99 -
06:50 8,8 8,7   Stille   1023,9 99 -
06:55 10,2 10,0   Stille   1023,9 99 -
07:00 69,3 69,1   Stille   1023,9 99 -
07:05 -20,1 -20,2   Stille   1023,9 99 -
07:10 9,0 8,9   Stille   1023,9 99 -
07:15 16,4 16,2   Stille   1023,9 99 -
07:20 8,8 8,7   Stille   1023,9 99 -
07:25 12,7 12,5   Stille   1023,9 99 -
07:30 43,2 43,0   Stille   1023,9 99 -
07:35 -39,6 -41,2   Stille   1023,9 85 -
07:40 -39,6 -41,7   Stille   1023,9 80 -
07:45 -39,6 -40,5   Stille   1023,9 91 -
07:50 -39,6 -39,7   Stille   1023,9 99 -
07:55 39,4 39,2   Stille   1023,9 99 -
08:00 18,7 18,5   Stille   1023,9 99 -
08:05 21,5 21,3   Stille   1023,9 99 -
08:10 28,4 28,2   Stille   1024,3 99 -
08:15 30,6 30,4   Stille   1024,3 99 -
08:20 68,4 68,2   Stille   1024,3 99 -
08:25 -9,1 -9,2   Stille   1024,3 99 -
08:30 -39,6 -40,7   Stille   1024,3 89 -
08:35 -39,6 -40,7   Stille   1024,3 89 -
08:40 -39,6 -40,7   Stille   1024,3 89 -
08:45 -39,6 -40,7   Stille   1024,3 89 -
08:50 -39,6 -40,7   Stille   1024,3 89 -
08:55 16,8 16,6   Stille   1024,3 99 -
09:00 9,4 9,3   Stille   1024,3 99 -
09:05 9,4 9,3   Stille   1024,3 99 -
09:10 9,5 9,4   Stille   1024,3 99 -
09:15 9,6 9,5   Stille   1024,3 99 -
09:20 52,9 52,7   Stille   1024,3 99 -
09:25 37,9 37,7   Stille   1024,3 99 -
09:30 9,6 9,5   Stille   1024,3 99 -
09:35 2,9 2,8   Stille   1024,3 99 -
09:40 9,9 9,7   Stille   1024,6 99 -
09:45 10,0 9,8   Stille   1024,6 99 -
09:50 10,1 9,9   Stille   1024,6 99 -
09:55 10,1 9,9   Stille   1024,3 99 -
10:00 10,1 9,9   Stille   1024,3 99 -
10:05 10,1 9,9   Stille   1024,3 99 -
10:10 10,1 9,9   Stille   1024,6 99 -
10:15 10,2 10,0   Stille   1024,6 99 -
10:20 10,3 10,1   Stille   1024,6 99 -
10:25 10,4 10,2   Stille   1024,6 99 -
10:30 10,4 10,2   Stille   1024,6 99 -
10:35 10,6 10,4   Stille   1024,6 99 -
10:40 10,5 10,3   Stille   1024,6 99 -
10:45 20,6 20,4   Stille   1024,6 99 -
10:50 10,4 10,2   Stille   1024,6 99 -
10:55 44,2 44,0   Stille   1024,6 99 -
11:00 10,8 10,6   Stille   1024,6 99 -
11:05 10,8 10,6   Stille   1024,6 99 -
11:10 17,8 17,6   Stille   1024,6 99 -
11:15 17,8 17,6   Stille   1024,6 99 -
11:20 33,4 33,2   Stille   1024,6 99 -
11:25 65,7 65,5   Stille   1024,6 99 -
11:30 11,1 10,9   Stille   1024,6 99 -
11:35 11,2 11,0   Stille   1024,6 99 -
11:40 11,3 11,1   Stille   1024,6 99 -
11:45 11,3 11,1   Stille   1024,6 99 -
11:50 25,6 25,4   Stille   1024,6 99 -
11:55 56,3 56,1   Stille   1024,6 99 -
12:00 46,1 45,9   Stille   1024,6 99 -
12:05 51,4 51,2   Stille   1024,6 99 -
12:10 24,7 24,5   Stille   1024,3 99 -
12:15 11,9 11,3   Stille   1024,3 96 -
12:20 18,5 18,3   Stille   1024,3 99 -
12:25 12,7 12,2   Stille   1024,3 97 -
12:30 12,6 11,8   Stille   1024,3 95 -
12:35 12,7 11,8   Stille   1024,3 94 -
12:40 12,7 11,8   Stille   1024,3 94 -
12:45 12,8 11,7 6,9 NV 8,7 1024,3 93 -
12:50 13,2 12,1 6,9 VNV 9,3 1024,3 93 -
12:55 12,9 11,8 4,0 VEST 6,4 1024,3 93 -
13:00 24,0 23,0 8,2 SV 10,5 1024,3 94 -
13:05 12,3 11,2 4,7 SSV 8,7 1024,3 93 -
13:10 12,3 11,4 6,9 SSV 9,3 1024,3 94 -
13:15 12,4 11,6 2,1 Sør 6,4 1024,3 95 -
13:20 12,5 11,9 4,0 VEST 7,6 1024,3 96 -
13:25 12,7 12,1 6,9 VNV 6,9 1023,9 96 -
13:30 14,4 13,8 8,2 VEST 9,3 1023,9 96 -
13:35 13,2 12,4 8,2 SV 9,3 1023,9 95 -
13:40 13,4 12,5 8,2 VNV 10,5 1023,9 94 -
13:45 13,5 12,2 4,0 VSV 8,7 1023,9 92 -
13:50 13,5 12,6 5,0 SSØ 8,2 1023,9 94 -
13:55 13,7 12,6 3,2 Sør 6,9 1023,9 93 -
14:00 14,9 13,9 5,0 Sør 7,6 1023,9 94 -
14:05 14,2 13,1 4,0 4,0 1023,9 93 -
14:10 14,1 12,5   Stille 4,0 1023,9 90 -
14:15 14,0 12,4 2,9 SSØ 4,7 1023,9 90 -
14:20 13,9 12,5 4,7 SSØ 5,8 1023,9 91 -
14:25 13,9 12,5 4,0 SSØ 4,0 1023,9 91 -
14:30 13,9 12,6 4,0 Sør 5,0 1023,9 92 -
14:35 13,8 12,4 4,7 SV 7,6 1023,9 91 -
14:40 13,7 12,4   Stille 5,0 1023,9 92 -
14:45 13,8 12,5 3,2 VSV 5,8 1023,9 92 -
14:50 13,9 12,5 4,0 VNV 9,3 1023,9 91 -
14:55 14,0 12,7   Stille 5,8 1023,9 92 -
15:00 14,1 12,5 4,0 VEST 7,6 1023,9 90 -
15:05 13,9 12,3 3,2 VSV 5,0 1023,9 90 -
15:10 14,0 12,6   Stille 4,7 1023,9 91 -
15:15 14,1 12,7   Stille 4,0 1023,9 91 -
15:20 14,1 12,7 4,0 VNV 5,0 1023,9 91 -
15:25 14,1 12,5 2,1 VEST 4,0 1023,9 90 -
15:30 13,9 12,1 8,2 VSV 8,2 1023,9 89 -
15:35 13,8 12,2 7,6 VSV 7,6 1023,9 90 -
15:40 13,7 12,3 5,0 VSV 8,2 1023,9 91 -
15:45 13,6 12,3 5,0 VEST 6,9 1023,9 92 -
15:50 13,6 12,3 3,2 VEST 6,4 1023,9 92 -
15:55 13,6 12,3 2,9 VEST 6,9 1024,3 92 -
16:00 13,6 12,3 4,7 VNV 5,8 1024,3 92 -
16:05 13,6 12,3 3,2 VEST 5,0 1024,3 92 -
16:10 13,6 12,3 3,2 VEST 5,0 1023,9 92 -
16:15 17,2 16,1 2,9 VEST 5,0 1023,9 93 -
16:20 13,6 12,3 2,1 VNV 5,0 1023,9 92 -
16:25 13,5 12,4 4,7 VEST 4,7 1023,9 93 -
16:30 13,4 12,1 3,2 VSV 6,9 1023,9 92 -
16:35 14,7 13,6 4,0 VSV 4,0 1023,9 93 -
16:40 13,4 12,1 5,8 SV 6,4 1023,9 92 -
16:45 13,3 12,2 2,9 VEST 4,0 1023,9 93 -
16:50 13,3 12,0 2,9 VSV 5,0 1023,9 92 -
16:55 13,4 12,3 2,9 VEST 6,4 1023,9 93 -
17:00 13,3 12,0   Stille 6,4 1023,9 92 -
17:05 13,3 12,0 2,1 VNV 4,7 1023,9 92 -
17:10 13,3 12,0 4,7 VNV 4,7 1023,9 92 -
17:15 13,3 11,7 2,9 VNV 6,4 1023,9 90 -
17:20 13,3 11,9 4,7 VEST 5,0 1023,9 91 -
17:25 13,3 11,9 5,8 VNV 5,8 1023,9 91 -
17:30 13,4 12,0 2,9 VNV 2,9 1023,9 91 0,50
17:36 13,4 11,8 5,8 VSV 5,8 1023,9 90 0,50
17:40 13,4 11,8 2,9 VNV 3,2 1023,9 90 0,50
17:45 13,4 11,8 4,0 VNV 5,8 1023,9 90 0,50
17:50 13,4 11,8 4,7 VNV 4,7 1023,9 90 0,50
17:55 13,4 11,8 2,1 VNV 5,8 1023,9 90 0,50
18:00 13,3 11,7 2,9 VNV 5,0 1023,9 90 -
18:05 13,3 11,7 5,0 VNV 5,0 1023,9 90 -
18:10 13,3 11,7   Stille   1023,9 90 -
18:15 13,3 11,7 2,1 VNV 6,9 1023,9 90 -
18:20 13,4 11,8   Stille 2,1 1023,9 90 -
18:25 13,4 11,8   Stille   1023,9 90 -
Daglig sammendrag for Fredag 20 September 2019
Tid Temp. ( °C ) Dew pt. ( °C ) Vind ( km/h ) fra Vindkast ( km/h ) Trykk ( hPa ) Humid.( % ) Rainrate ( cm )
Max69,3 69,1 8,2 VNV ( 79/274 ) 10,5 1025,3 99 0,50
Snitt13,5 12,9 1,2 Stille #158/222 2,0 1024,4 88 0,70
Min-39,6 -41,7 -   0,0 1023,9 0 -
Daglig Tabular details for Fredag 20 September 2019
Tid Temp. ( °C ) Dew pt. ( °C ) Vind ( km/h ) fra Vindkast ( km/h ) Trykk ( hPa ) Humid.( % ) Rainrate ( cm )
00:00 45,8 45,6   Stille   1025,3 99 0,30
00:05 32,3 32,1   Stille   1025,3 99 -
00:10 8,7 8,6   Stille   1025,3 99 -
00:15 8,8 8,7   Stille   1025,3 99 -
00:20 9,3 9,2   Stille   1025,3 99 -
00:25 15,1 14,9   Stille   1025,3 99 -
00:30 15,1 14,9   Stille   1025,3 99 -
00:35 -17,8 -17,8   Stille   1025,3 0 -
00:40 -17,8 -17,8   Stille 4,0 1025,3 0 -
00:45 -17,8 -17,8   Stille 2,1 1025,3 0 -
00:50 -39,6 -40,8 2,9 NNV 3,2 1025,3 88 -
00:55 63,1 62,9   Stille 3,2 1024,9 99 -
01:00 40,3 40,1   Stille   1024,9 99 -
01:05 64,6 64,4   Stille   1024,9 99 -
01:10 64,6 64,4   Stille   1025,3 99 -
01:15 -17,8 -17,8   Stille   1025,3 0 -
01:20 -17,8 -17,8   Stille   1025,3 0 -
01:25 -17,8 -17,8   Stille   1025,3 0 -
01:30 3,4 3,3   Stille   1025,3 99 -
01:35 -24,7 -24,8   Stille   1025,3 99 -
01:40 -9,4 -9,5   Stille   1025,3 99 0,30
01:45 58,9 58,7   Stille   1025,3 99 0,30
01:50 58,9 58,7   Stille   1025,3 99 0,30
01:55 -17,8 -17,8   Stille   1024,9 0 0,30
02:00 -17,8 -17,8   Stille   1024,9 0 -
02:05 -17,8 -17,8   Stille   1024,9 0 -
02:10 37,2 37,0   Stille   1024,9 99 0,30
02:15 8,3 8,2   Stille 2,1 1024,9 99 0,30
02:20 31,1 30,9   Stille   1024,9 99 0,30
02:25 31,1 30,9   Stille   1024,9 99 0,30
02:30 9,2 9,1   Stille   1024,9 99 0,30
02:35 8,2 8,1   Stille   1024,9 99 0,30
02:40 8,2 8,1   Stille   1024,9 99 0,30
02:45 39,6 39,4 2,1 NNV 2,9 1024,9 99 0,30
02:50 39,6 39,4   Stille   1024,9 99 0,30
02:55 -17,8 -17,8   Stille   1024,9 0 0,30
03:00 -17,8 -17,8   Stille   1024,9 0 -
03:05 -17,8 -17,8   Stille   1024,9 0 -
03:10 -17,8 -17,8   Stille   1024,6 0 -
03:15 -17,8 -17,8   Stille   1024,6 0 -
03:20 -17,8 -17,8   Stille   1024,6 0 -
03:25 -17,8 -17,8   Stille   1024,6 0 -
03:30 53,0 52,8   Stille 2,9 1024,6 99 -
03:35 15,0 14,8   Stille   1024,6 99 -
03:40 8,8 8,7   Stille   1024,6 99 -
03:45 8,5 8,4   Stille   1024,6 99 -
03:50 8,3 8,2   Stille   1024,6 99 -
03:55 8,4 8,3   Stille   1024,6 99 -
04:00 9,8 9,7   Stille   1024,6 99 -
04:06 8,3 8,2   Stille   1024,6 99 -
04:10 16,2 16,0   Stille   1024,6 99 -
04:15 8,4 8,3   Stille   1024,6 99 -
04:20 8,7 8,6   Stille   1024,6 99 -
04:25 19,9 19,7   Stille   1024,6 99 -
04:30 8,5 8,4   Stille   1024,6 99 -
04:35 8,4 8,3   Stille   1024,6 99 -
04:40 35,1 34,9   Stille   1024,6 99 -
04:45 51,6 51,4   Stille   1024,6 99 -
04:50 51,6 51,4   Stille   1024,6 99 -
04:55 51,6 51,4   Stille   1024,3 99 -
05:00 51,6 51,4   Stille 4,7 1024,3 99 -
05:05 51,6 51,4   Stille   1024,3 99 0,30
05:10 51,6 51,4 2,9 NNV 3,2 1024,3 99 0,30
05:15 51,6 51,4   Stille 2,1 1024,3 99 0,30
05:20 8,7 8,6   Stille   1024,3 99 0,30
05:25 8,7 8,6   Stille 4,0 1024,6 99 0,30
05:30 8,6 8,5 2,1 NNV 2,1 1024,6 99 0,30
05:35 8,7 8,6   Stille   1024,6 99 0,30
05:40 8,6 8,5   Stille   1024,6 99 0,30
05:45 8,6 8,5   Stille   1024,6 99 0,30
05:50 8,6 8,5   Stille   1024,6 99 0,30
05:55 58,4 58,2   Stille   1024,6 99 0,30
06:00 58,4 58,2   Stille   1024,6 99 0,30
06:05 -17,8 -17,8   Stille   1024,6 0 -
06:10 -17,8 -17,8   Stille   1024,3 0 -
06:15 -17,8 -17,8   Stille   1024,3 0 -
06:20 54,1 53,9   Stille   1024,3 99 -
06:25 49,0 48,8   Stille   1024,3 99 -
06:30 8,8 8,7   Stille   1024,3 99 -
06:35 8,7 8,6   Stille   1024,3 99 -
06:40 8,7 8,6   Stille   1023,9 99 -
06:45 8,7 8,6   Stille   1023,9 99 -
06:50 8,8 8,7   Stille   1023,9 99 -
06:55 10,2 10,0   Stille   1023,9 99 -
07:00 69,3 69,1   Stille   1023,9 99 -
07:05 -20,1 -20,2   Stille   1023,9 99 -
07:10 9,0 8,9   Stille   1023,9 99 -
07:15 16,4 16,2   Stille   1023,9 99 -
07:20 8,8 8,7   Stille   1023,9 99 -
07:25 12,7 12,5   Stille   1023,9 99 -
07:30 43,2 43,0   Stille   1023,9 99 -
07:35 -39,6 -41,2   Stille   1023,9 85 -
07:40 -39,6 -41,7   Stille   1023,9 80 -
07:45 -39,6 -40,5   Stille   1023,9 91 -
07:50 -39,6 -39,7   Stille   1023,9 99 -
07:55 39,4 39,2   Stille   1023,9 99 -
08:00 18,7 18,5   Stille   1023,9 99 -
08:05 21,5 21,3   Stille   1023,9 99 -
08:10 28,4 28,2   Stille   1024,3 99 -
08:15 30,6 30,4   Stille   1024,3 99 -
08:20 68,4 68,2   Stille   1024,3 99 -
08:25 -9,1 -9,2   Stille   1024,3 99 -
08:30 -39,6 -40,7   Stille   1024,3 89 -
08:35 -39,6 -40,7   Stille   1024,3 89 -
08:40 -39,6 -40,7   Stille   1024,3 89 -
08:45 -39,6 -40,7   Stille   1024,3 89 -
08:50 -39,6 -40,7   Stille   1024,3 89 -
08:55 16,8 16,6   Stille   1024,3 99 -
09:00 9,4 9,3   Stille   1024,3 99 -
09:05 9,4 9,3   Stille   1024,3 99 -
09:10 9,5 9,4   Stille   1024,3 99 -
09:15 9,6 9,5   Stille   1024,3 99 -
09:20 52,9 52,7   Stille   1024,3 99 -
09:25 37,9 37,7   Stille   1024,3 99 -
09:30 9,6 9,5   Stille   1024,3 99 -
09:35 2,9 2,8   Stille   1024,3 99 -
09:40 9,9 9,7   Stille   1024,6 99 -
09:45 10,0 9,8   Stille   1024,6 99 -
09:50 10,1 9,9   Stille   1024,6 99 -
09:55 10,1 9,9   Stille   1024,3 99 -
10:00 10,1 9,9   Stille   1024,3 99 -
10:05 10,1 9,9   Stille   1024,3 99 -
10:10 10,1 9,9   Stille   1024,6 99 -
10:15 10,2 10,0   Stille   1024,6 99 -
10:20 10,3 10,1   Stille   1024,6 99 -
10:25 10,4 10,2   Stille   1024,6 99 -
10:30 10,4 10,2   Stille   1024,6 99 -
10:35 10,6 10,4   Stille   1024,6 99 -
10:40 10,5 10,3   Stille   1024,6 99 -
10:45 20,6 20,4   Stille   1024,6 99 -
10:50 10,4 10,2   Stille   1024,6 99 -
10:55 44,2 44,0   Stille   1024,6 99 -
11:00 10,8 10,6   Stille   1024,6 99 -
11:05 10,8 10,6   Stille   1024,6 99 -
11:10 17,8 17,6   Stille   1024,6 99 -
11:15 17,8 17,6   Stille   1024,6 99 -
11:20 33,4 33,2   Stille   1024,6 99 -
11:25 65,7 65,5   Stille   1024,6 99 -
11:30 11,1 10,9   Stille   1024,6 99 -
11:35 11,2 11,0   Stille   1024,6 99 -
11:40 11,3 11,1   Stille   1024,6 99 -
11:45 11,3 11,1   Stille   1024,6 99 -
11:50 25,6 25,4   Stille   1024,6 99 -
11:55 56,3 56,1   Stille   1024,6 99 -
12:00 46,1 45,9   Stille   1024,6 99 -
12:05 51,4 51,2   Stille   1024,6 99 -
12:10 24,7 24,5   Stille   1024,3 99 -
12:15 11,9 11,3   Stille   1024,3 96 -
12:20 18,5 18,3   Stille   1024,3 99 -
12:25 12,7 12,2   Stille   1024,3 97 -
12:30 12,6 11,8   Stille   1024,3 95 -
12:35 12,7 11,8   Stille   1024,3 94 -
12:40 12,7 11,8   Stille   1024,3 94 -
12:45 12,8 11,7 6,9 NV 8,7 1024,3 93 -
12:50 13,2 12,1 6,9 VNV 9,3 1024,3 93 -
12:55 12,9 11,8 4,0 VEST 6,4 1024,3 93 -
13:00 24,0 23,0 8,2 SV 10,5 1024,3 94 -
13:05 12,3 11,2 4,7 SSV 8,7 1024,3 93 -
13:10 12,3 11,4 6,9 SSV 9,3 1024,3 94 -
13:15 12,4 11,6 2,1 Sør 6,4 1024,3 95 -
13:20 12,5 11,9 4,0 VEST 7,6 1024,3 96 -
13:25 12,7 12,1 6,9 VNV 6,9 1023,9 96 -
13:30 14,4 13,8 8,2 VEST 9,3 1023,9 96 -
13:35 13,2 12,4 8,2 SV 9,3 1023,9 95 -
13:40 13,4 12,5 8,2 VNV 10,5 1023,9 94 -
13:45 13,5 12,2 4,0 VSV 8,7 1023,9 92 -
13:50 13,5 12,6 5,0 SSØ 8,2 1023,9 94 -
13:55 13,7 12,6 3,2 Sør 6,9 1023,9 93 -
14:00 14,9 13,9 5,0 Sør 7,6 1023,9 94 -
14:05 14,2 13,1 4,0 4,0 1023,9 93 -
14:10 14,1 12,5   Stille 4,0 1023,9 90 -
14:15 14,0 12,4 2,9 SSØ 4,7 1023,9 90 -
14:20 13,9 12,5 4,7 SSØ 5,8 1023,9 91 -
14:25 13,9 12,5 4,0 SSØ 4,0 1023,9 91 -
14:30 13,9 12,6 4,0 Sør 5,0 1023,9 92 -
14:35 13,8 12,4 4,7 SV 7,6 1023,9 91 -
14:40 13,7 12,4   Stille 5,0 1023,9 92 -
14:45 13,8 12,5 3,2 VSV 5,8 1023,9 92 -
14:50 13,9 12,5 4,0 VNV 9,3 1023,9 91 -
14:55 14,0 12,7   Stille 5,8 1023,9 92 -
15:00 14,1 12,5 4,0 VEST 7,6 1023,9 90 -
15:05 13,9 12,3 3,2 VSV 5,0 1023,9 90 -
15:10 14,0 12,6   Stille 4,7 1023,9 91 -
15:15 14,1 12,7   Stille 4,0 1023,9 91 -
15:20 14,1 12,7 4,0 VNV 5,0 1023,9 91 -
15:25 14,1 12,5 2,1 VEST 4,0 1023,9 90 -
15:30 13,9 12,1 8,2 VSV 8,2 1023,9 89 -
15:35 13,8 12,2 7,6 VSV 7,6 1023,9 90 -
15:40 13,7 12,3 5,0 VSV 8,2 1023,9 91 -
15:45 13,6 12,3 5,0 VEST 6,9 1023,9 92 -
15:50 13,6 12,3 3,2 VEST 6,4 1023,9 92 -
15:55 13,6 12,3 2,9 VEST 6,9 1024,3 92 -
16:00 13,6 12,3 4,7 VNV 5,8 1024,3 92 -
16:05 13,6 12,3 3,2 VEST 5,0 1024,3 92 -
16:10 13,6 12,3 3,2 VEST 5,0 1023,9 92 -
16:15 17,2 16,1 2,9 VEST 5,0 1023,9 93 -
16:20 13,6 12,3 2,1 VNV 5,0 1023,9 92 -
16:25 13,5 12,4 4,7 VEST 4,7 1023,9 93 -
16:30 13,4 12,1 3,2 VSV 6,9 1023,9 92 -
16:35 14,7 13,6 4,0 VSV 4,0 1023,9 93 -
16:40 13,4 12,1 5,8 SV 6,4 1023,9 92 -
16:45 13,3 12,2 2,9 VEST 4,0 1023,9 93 -
16:50 13,3 12,0 2,9 VSV 5,0 1023,9 92 -
16:55 13,4 12,3 2,9 VEST 6,4 1023,9 93 -
17:00 13,3 12,0   Stille 6,4 1023,9 92 -
17:05 13,3 12,0 2,1 VNV 4,7 1023,9 92 -
17:10 13,3 12,0 4,7 VNV 4,7 1023,9 92 -
17:15 13,3 11,7 2,9 VNV 6,4 1023,9 90 -
17:20 13,3 11,9 4,7 VEST 5,0 1023,9 91 -
17:25 13,3 11,9 5,8 VNV 5,8 1023,9 91 -
17:30 13,4 12,0 2,9 VNV 2,9 1023,9 91 0,50
17:36 13,4 11,8 5,8 VSV 5,8 1023,9 90 0,50
17:40 13,4 11,8 2,9 VNV 3,2 1023,9 90 0,50
17:45 13,4 11,8 4,0 VNV 5,8 1023,9 90 0,50
17:50 13,4 11,8 4,7 VNV 4,7 1023,9 90 0,50
17:55 13,4 11,8 2,1 VNV 5,8 1023,9 90 0,50
18:00 13,3 11,7 2,9 VNV 5,0 1023,9 90 -
18:05 13,3 11,7 5,0 VNV 5,0 1023,9 90 -
18:10 13,3 11,7   Stille   1023,9 90 -
18:15 13,3 11,7 2,1 VNV 6,9 1023,9 90 -
18:20 13,4 11,8   Stille 2,1 1023,9 90 -
18:25 13,4 11,8   Stille   1023,9 90 -

Download your copy of this data-set  here

Our weather-data as stored at Weather Underground. Script utviklet av Jim McMurry. Tilrettelagt for malen av Leuven-Template.eu

Du finner vår vær info også på:

European Weather Network

WeatherCloud

Weather Underground

Citizen Weather Observer Program (CWOP)

Utstyr vi bruker:

Værstsjon
Oregon scientific WMR 300

Værprogram
Meteobridge

Oregon scientific WMR 300

Meteobridge